sensor_id;sensor_type;location;lat;lon;timestamp;pressure;altitude;pressure_sealevel;temperature;humidity
34696;BME280;20918;51.138;17.370;2023-03-03T00:00:03;100679.77;;;-0.47;87.25
34696;BME280;20918;51.138;17.370;2023-03-03T00:03:14;100675.03;;;-0.52;86.89
34696;BME280;20918;51.138;17.370;2023-03-03T00:06:17;100673.52;;;-0.56;86.86
34696;BME280;20918;51.138;17.370;2023-03-03T00:09:20;100674.64;;;-0.58;86.88
34696;BME280;20918;51.138;17.370;2023-03-03T00:12:28;100677.21;;;-0.60;87.28
34696;BME280;20918;51.138;17.370;2023-03-03T00:15:29;100679.00;;;-0.61;87.19
34696;BME280;20918;51.138;17.370;2023-03-03T00:18:34;100681.09;;;-0.65;87.11
34696;BME280;20918;51.138;17.370;2023-03-03T00:21:42;100690.08;;;-0.67;87.18
34696;BME280;20918;51.138;17.370;2023-03-03T00:24:44;100695.64;;;-0.67;87.12
34696;BME280;20918;51.138;17.370;2023-03-03T00:27:44;100702.92;;;-0.66;87.22
34696;BME280;20918;51.138;17.370;2023-03-03T00:30:44;100703.33;;;-0.64;87.28
34696;BME280;20918;51.138;17.370;2023-03-03T00:33:49;100700.24;;;-0.65;87.28
34696;BME280;20918;51.138;17.370;2023-03-03T00:36:56;100689.67;;;-0.66;87.13
34696;BME280;20918;51.138;17.370;2023-03-03T00:46:22;100683.98;;;-0.57;87.44
34696;BME280;20918;51.138;17.370;2023-03-03T00:49:23;100682.42;;;-0.60;87.83
34696;BME280;20918;51.138;17.370;2023-03-03T00:52:32;100683.86;;;-0.68;88.25
34696;BME280;20918;51.138;17.370;2023-03-03T00:55:36;100679.59;;;-0.76;88.06
34696;BME280;20918;51.138;17.370;2023-03-03T00:58:36;100671.52;;;-0.81;87.97
34696;BME280;20918;51.138;17.370;2023-03-03T01:01:37;100667.97;;;-0.82;88.16
34696;BME280;20918;51.138;17.370;2023-03-03T01:04:38;100663.37;;;-0.84;88.21
34696;BME280;20918;51.138;17.370;2023-03-03T01:07:39;100661.30;;;-0.88;88.53
34696;BME280;20918;51.138;17.370;2023-03-03T01:10:45;100655.86;;;-0.94;88.38
34696;BME280;20918;51.138;17.370;2023-03-03T01:13:46;100656.89;;;-0.94;88.31
34696;BME280;20918;51.138;17.370;2023-03-03T01:16:47;100649.80;;;-0.91;87.96
34696;BME280;20918;51.138;17.370;2023-03-03T01:19:51;100644.61;;;-0.88;87.75
34696;BME280;20918;51.138;17.370;2023-03-03T01:22:51;100640.96;;;-0.84;87.73
34696;BME280;20918;51.138;17.370;2023-03-03T01:25:52;100636.89;;;-0.80;88.01
34696;BME280;20918;51.138;17.370;2023-03-03T01:28:52;100632.44;;;-0.74;87.81
34696;BME280;20918;51.138;17.370;2023-03-03T01:31:52;100623.09;;;-0.69;87.99
34696;BME280;20918;51.138;17.370;2023-03-03T01:34:53;100625.45;;;-0.64;87.84
34696;BME280;20918;51.138;17.370;2023-03-03T01:37:53;100620.73;;;-0.63;87.90
34696;BME280;20918;51.138;17.370;2023-03-03T01:40:57;100618.52;;;-0.64;87.83
34696;BME280;20918;51.138;17.370;2023-03-03T01:43:58;100616.06;;;-0.67;87.87
34696;BME280;20918;51.138;17.370;2023-03-03T01:50:20;100613.61;;;-0.66;87.84
34696;BME280;20918;51.138;17.370;2023-03-03T01:53:28;100608.70;;;-0.66;87.92
34696;BME280;20918;51.138;17.370;2023-03-03T01:56:30;100606.48;;;-0.63;87.87
34696;BME280;20918;51.138;17.370;2023-03-03T01:59:33;100607.59;;;-0.61;87.86
34696;BME280;20918;51.138;17.370;2023-03-03T02:02:36;100601.98;;;-0.64;87.67
34696;BME280;20918;51.138;17.370;2023-03-03T02:05:40;100594.17;;;-0.64;87.75
34696;BME280;20918;51.138;17.370;2023-03-03T02:08:51;100601.14;;;-0.64;87.80
34696;BME280;20918;51.138;17.370;2023-03-03T02:11:54;100602.38;;;-0.65;87.93
34696;BME280;20918;51.138;17.370;2023-03-03T02:14:56;100596.28;;;-0.67;87.91
34696;BME280;20918;51.138;17.370;2023-03-03T02:17:58;100586.45;;;-0.69;87.70
34696;BME280;20918;51.138;17.370;2023-03-03T02:24:14;100585.59;;;-0.69;87.81
34696;BME280;20918;51.138;17.370;2023-03-03T02:27:17;100584.25;;;-0.67;88.09
34696;BME280;20918;51.138;17.370;2023-03-03T02:30:19;100589.36;;;-0.65;87.84
34696;BME280;20918;51.138;17.370;2023-03-03T02:33:20;100597.00;;;-0.68;88.16
34696;BME280;20918;51.138;17.370;2023-03-03T02:36:22;100595.66;;;-0.72;87.88
34696;BME280;20918;51.138;17.370;2023-03-03T02:39:24;100597.11;;;-0.73;87.95
34696;BME280;20918;51.138;17.370;2023-03-03T02:42:26;100596.08;;;-0.73;88.09
34696;BME280;20918;51.138;17.370;2023-03-03T02:45:29;100595.94;;;-0.74;88.08
34696;BME280;20918;51.138;17.370;2023-03-03T02:48:30;100601.61;;;-0.73;88.12
34696;BME280;20918;51.138;17.370;2023-03-03T02:51:30;100605.14;;;-0.71;88.28
34696;BME280;20918;51.138;17.370;2023-03-03T02:54:31;100612.05;;;-0.73;88.71
34696;BME280;20918;51.138;17.370;2023-03-03T02:57:32;100617.27;;;-0.80;88.55
34696;BME280;20918;51.138;17.370;2023-03-03T03:00:32;100620.60;;;-0.84;88.52
34696;BME280;20918;51.138;17.370;2023-03-03T03:03:34;100625.59;;;-0.89;89.01
34696;BME280;20918;51.138;17.370;2023-03-03T03:06:35;100621.07;;;-0.93;88.84
34696;BME280;20918;51.138;17.370;2023-03-03T03:09:36;100620.91;;;-0.93;88.91
34696;BME280;20918;51.138;17.370;2023-03-03T03:12:37;100618.16;;;-0.94;88.79
34696;BME280;20918;51.138;17.370;2023-03-03T03:15:38;100614.73;;;-0.91;88.86
34696;BME280;20918;51.138;17.370;2023-03-03T03:18:38;100611.75;;;-0.91;88.93
34696;BME280;20918;51.138;17.370;2023-03-03T03:21:39;100606.17;;;-0.91;88.81
34696;BME280;20918;51.138;17.370;2023-03-03T03:24:42;100600.08;;;-0.89;88.91
34696;BME280;20918;51.138;17.370;2023-03-03T03:27:43;100598.19;;;-0.87;89.02
34696;BME280;20918;51.138;17.370;2023-03-03T03:30:43;100592.46;;;-0.83;89.22
34696;BME280;20918;51.138;17.370;2023-03-03T03:33:45;100587.76;;;-0.83;89.12
34696;BME280;20918;51.138;17.370;2023-03-03T03:36:46;100576.73;;;-0.85;89.16
34696;BME280;20918;51.138;17.370;2023-03-03T03:39:47;100580.73;;;-0.85;89.31
34696;BME280;20918;51.138;17.370;2023-03-03T03:42:51;100586.29;;;-0.85;89.29
34696;BME280;20918;51.138;17.370;2023-03-03T03:45:54;100584.77;;;-0.86;89.14
34696;BME280;20918;51.138;17.370;2023-03-03T03:48:54;100586.17;;;-0.86;89.10
34696;BME280;20918;51.138;17.370;2023-03-03T03:51:55;100589.70;;;-0.87;89.18
34696;BME280;20918;51.138;17.370;2023-03-03T03:54:56;100595.83;;;-0.88;89.21
34696;BME280;20918;51.138;17.370;2023-03-03T03:57:57;100597.36;;;-0.91;89.37
34696;BME280;20918;51.138;17.370;2023-03-03T04:01:05;100602.02;;;-0.94;89.26
34696;BME280;20918;51.138;17.370;2023-03-03T04:04:07;100606.07;;;-0.98;89.47
34696;BME280;20918;51.138;17.370;2023-03-03T04:07:08;100612.96;;;-1.00;89.48
34696;BME280;20918;51.138;17.370;2023-03-03T04:10:09;100617.13;;;-1.00;89.75
34696;BME280;20918;51.138;17.370;2023-03-03T04:13:12;100615.73;;;-1.00;89.76
34696;BME280;20918;51.138;17.370;2023-03-03T04:16:15;100618.08;;;-0.99;89.66
34696;BME280;20918;51.138;17.370;2023-03-03T04:19:16;100614.58;;;-0.98;89.51
34696;BME280;20918;51.138;17.370;2023-03-03T04:22:17;100614.87;;;-0.97;89.81
34696;BME280;20918;51.138;17.370;2023-03-03T04:25:17;100628.48;;;-0.95;89.82
34696;BME280;20918;51.138;17.370;2023-03-03T04:28:18;100631.80;;;-0.95;89.85
34696;BME280;20918;51.138;17.370;2023-03-03T04:31:19;100633.17;;;-0.99;89.62
34696;BME280;20918;51.138;17.370;2023-03-03T04:34:20;100630.71;;;-1.04;89.72
34696;BME280;20918;51.138;17.370;2023-03-03T04:37:21;100632.19;;;-1.09;89.67
34696;BME280;20918;51.138;17.370;2023-03-03T04:40:22;100643.35;;;-1.14;89.89
34696;BME280;20918;51.138;17.370;2023-03-03T04:43:23;100647.17;;;-1.20;89.84
34696;BME280;20918;51.138;17.370;2023-03-03T04:46:23;100648.95;;;-1.25;89.62
34696;BME280;20918;51.138;17.370;2023-03-03T04:49:24;100647.77;;;-1.29;89.68
34696;BME280;20918;51.138;17.370;2023-03-03T04:52:25;100647.62;;;-1.29;89.58
34696;BME280;20918;51.138;17.370;2023-03-03T04:55:25;100645.81;;;-1.28;89.71
34696;BME280;20918;51.138;17.370;2023-03-03T04:58:26;100636.91;;;-1.27;89.89
34696;BME280;20918;51.138;17.370;2023-03-03T05:01:27;100632.68;;;-1.25;90.04
34696;BME280;20918;51.138;17.370;2023-03-03T05:04:29;100630.66;;;-1.23;90.00
34696;BME280;20918;51.138;17.370;2023-03-03T05:07:29;100627.20;;;-1.24;90.28
34696;BME280;20918;51.138;17.370;2023-03-03T05:10:29;100628.08;;;-1.24;90.26
34696;BME280;20918;51.138;17.370;2023-03-03T05:13:30;100616.98;;;-1.24;89.94
34696;BME280;20918;51.138;17.370;2023-03-03T05:16:30;100616.13;;;-1.21;89.92
34696;BME280;20918;51.138;17.370;2023-03-03T05:19:31;100620.36;;;-1.19;89.86
34696;BME280;20918;51.138;17.370;2023-03-03T05:22:31;100624.17;;;-1.16;90.24
34696;BME280;20918;51.138;17.370;2023-03-03T05:25:31;100625.25;;;-1.12;90.33
34696;BME280;20918;51.138;17.370;2023-03-03T05:28:32;100618.33;;;-1.13;90.21
34696;BME280;20918;51.138;17.370;2023-03-03T05:31:32;100621.77;;;-1.16;90.47
34696;BME280;20918;51.138;17.370;2023-03-03T05:34:37;100621.83;;;-1.20;90.21
34696;BME280;20918;51.138;17.370;2023-03-03T05:37:37;100625.30;;;-1.27;90.41
34696;BME280;20918;51.138;17.370;2023-03-03T05:40:41;100613.51;;;-1.31;90.46
34696;BME280;20918;51.138;17.370;2023-03-03T05:43:45;100614.77;;;-1.35;90.24
34696;BME280;20918;51.138;17.370;2023-03-03T05:46:45;100615.73;;;-1.37;90.19
34696;BME280;20918;51.138;17.370;2023-03-03T05:49:48;100621.66;;;-1.41;90.23
34696;BME280;20918;51.138;17.370;2023-03-03T05:52:49;100625.98;;;-1.44;90.20
34696;BME280;20918;51.138;17.370;2023-03-03T05:55:52;100628.40;;;-1.48;90.25
34696;BME280;20918;51.138;17.370;2023-03-03T05:58:52;100624.27;;;-1.51;90.27
34696;BME280;20918;51.138;17.370;2023-03-03T06:01:53;100624.04;;;-1.53;90.13
34696;BME280;20918;51.138;17.370;2023-03-03T06:04:53;100629.74;;;-1.53;90.49
34696;BME280;20918;51.138;17.370;2023-03-03T06:07:54;100626.12;;;-1.53;90.60
34696;BME280;20918;51.138;17.370;2023-03-03T06:10:54;100628.44;;;-1.55;90.40
34696;BME280;20918;51.138;17.370;2023-03-03T06:13:55;100632.65;;;-1.52;90.49
34696;BME280;20918;51.138;17.370;2023-03-03T06:16:55;100638.64;;;-1.51;90.65
34696;BME280;20918;51.138;17.370;2023-03-03T06:19:57;100639.47;;;-1.46;90.87
34696;BME280;20918;51.138;17.370;2023-03-03T06:22:57;100642.88;;;-1.45;90.59
34696;BME280;20918;51.138;17.370;2023-03-03T06:25:58;100651.17;;;-1.45;90.75
34696;BME280;20918;51.138;17.370;2023-03-03T06:28:58;100656.63;;;-1.46;90.46
34696;BME280;20918;51.138;17.370;2023-03-03T06:31:59;100662.83;;;-1.48;90.55
34696;BME280;20918;51.138;17.370;2023-03-03T06:34:59;100674.85;;;-1.49;90.42
34696;BME280;20918;51.138;17.370;2023-03-03T06:38:00;100679.02;;;-1.50;90.51
34696;BME280;20918;51.138;17.370;2023-03-03T06:41:00;100675.48;;;-1.51;90.34
34696;BME280;20918;51.138;17.370;2023-03-03T06:44:03;100670.67;;;-1.53;89.96
34696;BME280;20918;51.138;17.370;2023-03-03T06:47:04;100665.83;;;-1.53;90.10
34696;BME280;20918;51.138;17.370;2023-03-03T06:50:05;100665.38;;;-1.51;89.96
34696;BME280;20918;51.138;17.370;2023-03-03T06:53:12;100652.27;;;-1.49;90.17
34696;BME280;20918;51.138;17.370;2023-03-03T06:56:13;100671.23;;;-1.50;90.01
34696;BME280;20918;51.138;17.370;2023-03-03T06:59:14;100675.80;;;-1.51;90.05
34696;BME280;20918;51.138;17.370;2023-03-03T07:02:16;100669.89;;;-1.51;90.02
34696;BME280;20918;51.138;17.370;2023-03-03T07:05:17;100674.63;;;-1.48;90.29
34696;BME280;20918;51.138;17.370;2023-03-03T07:08:19;100677.30;;;-1.46;90.07
34696;BME280;20918;51.138;17.370;2023-03-03T07:11:20;100680.31;;;-1.44;89.99
34696;BME280;20918;51.138;17.370;2023-03-03T07:14:21;100690.77;;;-1.42;89.92
34696;BME280;20918;51.138;17.370;2023-03-03T07:17:23;100699.89;;;-1.40;90.07
34696;BME280;20918;51.138;17.370;2023-03-03T07:20:37;100706.25;;;-1.42;89.89
34696;BME280;20918;51.138;17.370;2023-03-03T07:23:38;100709.64;;;-1.45;89.77
34696;BME280;20918;51.138;17.370;2023-03-03T07:26:41;100714.45;;;-1.43;90.00
34696;BME280;20918;51.138;17.370;2023-03-03T07:29:41;100717.09;;;-1.40;89.83
34696;BME280;20918;51.138;17.370;2023-03-03T07:32:42;100704.90;;;-1.36;89.93
34696;BME280;20918;51.138;17.370;2023-03-03T07:35:44;100698.20;;;-1.31;89.77
34696;BME280;20918;51.138;17.370;2023-03-03T07:38:48;100695.53;;;-1.22;90.05
34696;BME280;20918;51.138;17.370;2023-03-03T07:41:53;100693.13;;;-1.16;89.72
34696;BME280;20918;51.138;17.370;2023-03-03T07:44:54;100691.58;;;-1.09;89.86
34696;BME280;20918;51.138;17.370;2023-03-03T07:51:15;100696.30;;;-1.07;89.67
34696;BME280;20918;51.138;17.370;2023-03-03T07:57:35;100697.70;;;-1.06;89.38
34696;BME280;20918;51.138;17.370;2023-03-03T08:03:39;100683.20;;;-1.05;89.46
34696;BME280;20918;51.138;17.370;2023-03-03T08:06:50;100688.54;;;-1.04;89.20
34696;BME280;20918;51.138;17.370;2023-03-03T08:10:00;100694.34;;;-1.02;89.25
34696;BME280;20918;51.138;17.370;2023-03-03T08:13:00;100694.24;;;-1.01;89.38
34696;BME280;20918;51.138;17.370;2023-03-03T08:19:09;100695.38;;;-0.99;89.46
34696;BME280;20918;51.138;17.370;2023-03-03T08:22:15;100691.98;;;-0.97;89.09
34696;BME280;20918;51.138;17.370;2023-03-03T08:25:16;100687.07;;;-0.96;88.96
34696;BME280;20918;51.138;17.370;2023-03-03T08:28:17;100674.66;;;-0.95;89.07
34696;BME280;20918;51.138;17.370;2023-03-03T08:31:37;100674.48;;;-0.91;88.98
34696;BME280;20918;51.138;17.370;2023-03-03T08:34:37;100676.64;;;-0.85;89.16
34696;BME280;20918;51.138;17.370;2023-03-03T08:37:38;100684.65;;;-0.83;88.88
34696;BME280;20918;51.138;17.370;2023-03-03T08:40:38;100684.65;;;-0.83;88.92
34696;BME280;20918;51.138;17.370;2023-03-03T08:43:38;100683.46;;;-0.83;88.83
34696;BME280;20918;51.138;17.370;2023-03-03T08:46:39;100692.63;;;-0.82;88.90
34696;BME280;20918;51.138;17.370;2023-03-03T08:49:39;100700.21;;;-0.82;89.00
34696;BME280;20918;51.138;17.370;2023-03-03T08:52:40;100707.94;;;-0.79;88.86
34696;BME280;20918;51.138;17.370;2023-03-03T08:55:40;100704.33;;;-0.74;88.98
34696;BME280;20918;51.138;17.370;2023-03-03T08:58:41;100702.69;;;-0.72;88.97
34696;BME280;20918;51.138;17.370;2023-03-03T09:01:47;100706.17;;;-0.69;88.99
34696;BME280;20918;51.138;17.370;2023-03-03T09:04:47;100711.84;;;-0.65;88.93
34696;BME280;20918;51.138;17.370;2023-03-03T09:07:48;100717.95;;;-0.65;88.94
34696;BME280;20918;51.138;17.370;2023-03-03T09:10:50;100715.35;;;-0.65;88.94
34696;BME280;20918;51.138;17.370;2023-03-03T09:13:52;100717.97;;;-0.65;88.92
34696;BME280;20918;51.138;17.370;2023-03-03T09:16:54;100719.52;;;-0.65;89.00
34696;BME280;20918;51.138;17.370;2023-03-03T09:19:57;100719.09;;;-0.63;89.12
34696;BME280;20918;51.138;17.370;2023-03-03T09:22:59;100724.80;;;-0.63;88.80
34696;BME280;20918;51.138;17.370;2023-03-03T09:29:30;100729.52;;;-0.60;88.73
34696;BME280;20918;51.138;17.370;2023-03-03T09:32:36;100737.86;;;-0.60;88.70
34696;BME280;20918;51.138;17.370;2023-03-03T09:35:38;100735.80;;;-0.61;88.51
34696;BME280;20918;51.138;17.370;2023-03-03T09:38:40;100738.45;;;-0.58;88.62
34696;BME280;20918;51.138;17.370;2023-03-03T09:48:18;100738.00;;;-0.57;88.79
34696;BME280;20918;51.138;17.370;2023-03-03T09:54:59;100742.17;;;-0.53;89.10
34696;BME280;20918;51.138;17.370;2023-03-03T09:58:08;100744.01;;;-0.45;88.77
34696;BME280;20918;51.138;17.370;2023-03-03T10:10:55;100746.05;;;-0.37;88.49
34696;BME280;20918;51.138;17.370;2023-03-03T10:14:12;100741.96;;;-0.33;88.33
34696;BME280;20918;51.138;17.370;2023-03-03T10:17:38;100738.34;;;-0.27;88.41
34696;BME280;20918;51.138;17.370;2023-03-03T10:24:05;100732.15;;;-0.18;88.21
34696;BME280;20918;51.138;17.370;2023-03-03T10:40:02;100729.14;;;-0.17;87.88
34696;BME280;20918;51.138;17.370;2023-03-03T10:43:13;100730.20;;;-0.21;87.43
34696;BME280;20918;51.138;17.370;2023-03-03T11:05:25;100707.97;;;-0.09;87.70
34696;BME280;20918;51.138;17.370;2023-03-03T11:08:42;100705.51;;;-0.02;87.51
34696;BME280;20918;51.138;17.370;2023-03-03T11:11:47;100705.77;;;0.03;87.17
34696;BME280;20918;51.138;17.370;2023-03-03T11:14:51;100703.57;;;0.08;87.14
34696;BME280;20918;51.138;17.370;2023-03-03T11:36:27;100702.83;;;0.31;87.15
34696;BME280;20918;51.138;17.370;2023-03-03T11:39:29;100697.39;;;0.34;87.07
34696;BME280;20918;51.138;17.370;2023-03-03T11:42:45;100694.24;;;0.34;86.57
34696;BME280;20918;51.138;17.370;2023-03-03T11:45:54;100698.60;;;0.28;86.11
34696;BME280;20918;51.138;17.370;2023-03-03T11:55:46;100697.14;;;0.30;86.25
34696;BME280;20918;51.138;17.370;2023-03-03T12:01:52;100690.42;;;0.28;86.47
34696;BME280;20918;51.138;17.370;2023-03-03T12:05:07;100690.17;;;0.33;86.38
34696;BME280;20918;51.138;17.370;2023-03-03T12:11:21;100689.60;;;0.40;86.17
34696;BME280;20918;51.138;17.370;2023-03-03T12:24:03;100680.86;;;0.37;86.14
34696;BME280;20918;51.138;17.370;2023-03-03T12:27:16;100682.15;;;0.45;86.34
34696;BME280;20918;51.138;17.370;2023-03-03T12:30:37;100677.20;;;0.50;86.09
34696;BME280;20918;51.138;17.370;2023-03-03T12:39:50;100670.92;;;0.47;85.77
34696;BME280;20918;51.138;17.370;2023-03-03T12:46:03;100669.64;;;0.45;85.82
34696;BME280;20918;51.138;17.370;2023-03-03T12:49:06;100668.35;;;0.46;85.46
34696;BME280;20918;51.138;17.370;2023-03-03T13:05:15;100667.60;;;0.56;85.53
34696;BME280;20918;51.138;17.370;2023-03-03T13:08:37;100663.41;;;0.59;85.20
34696;BME280;20918;51.138;17.370;2023-03-03T13:11:48;100663.41;;;0.62;85.18
34696;BME280;20918;51.138;17.370;2023-03-03T13:15:04;100658.71;;;0.65;85.03
34696;BME280;20918;51.138;17.370;2023-03-03T13:24:32;100660.81;;;0.68;84.88
34696;BME280;20918;51.138;17.370;2023-03-03T13:27:38;100666.05;;;0.68;84.98
34696;BME280;20918;51.138;17.370;2023-03-03T13:30:41;100666.92;;;0.71;84.82
34696;BME280;20918;51.138;17.370;2023-03-03T13:34:03;100665.40;;;0.67;84.74
34696;BME280;20918;51.138;17.370;2023-03-03T13:37:06;100658.73;;;0.68;84.83
34696;BME280;20918;51.138;17.370;2023-03-03T13:43:18;100653.05;;;0.75;84.96
34696;BME280;20918;51.138;17.370;2023-03-03T13:46:26;100652.27;;;0.77;84.76
34696;BME280;20918;51.138;17.370;2023-03-03T13:52:44;100647.08;;;0.85;84.86
34696;BME280;20918;51.138;17.370;2023-03-03T13:59:18;100635.77;;;0.91;84.71
34696;BME280;20918;51.138;17.370;2023-03-03T14:05:49;100620.73;;;0.97;84.64
34696;BME280;20918;51.138;17.370;2023-03-03T14:21:13;100614.90;;;0.96;84.02
34696;BME280;20918;51.138;17.370;2023-03-03T14:24:20;100614.90;;;0.96;83.89
34696;BME280;20918;51.138;17.370;2023-03-03T14:27:24;100617.20;;;0.93;83.59
34696;BME280;20918;51.138;17.370;2023-03-03T14:30:32;100621.30;;;0.88;83.76
34696;BME280;20918;51.138;17.370;2023-03-03T14:33:34;100623.18;;;0.85;83.78
34696;BME280;20918;51.138;17.370;2023-03-03T14:36:35;100618.69;;;0.85;84.01
34696;BME280;20918;51.138;17.370;2023-03-03T14:39:40;100616.23;;;0.85;84.05
34696;BME280;20918;51.138;17.370;2023-03-03T14:45:48;100616.96;;;0.85;83.99
34696;BME280;20918;51.138;17.370;2023-03-03T14:48:48;100611.35;;;0.85;83.96
34696;BME280;20918;51.138;17.370;2023-03-03T14:51:52;100613.62;;;0.85;83.72
34696;BME280;20918;51.138;17.370;2023-03-03T14:54:54;100611.64;;;0.81;83.43
34696;BME280;20918;51.138;17.370;2023-03-03T14:57:55;100608.59;;;0.77;83.47
34696;BME280;20918;51.138;17.370;2023-03-03T15:01:12;100611.47;;;0.75;83.73
34696;BME280;20918;51.138;17.370;2023-03-03T15:07:34;100603.94;;;0.73;83.68
34696;BME280;20918;51.138;17.370;2023-03-03T15:10:36;100602.30;;;0.71;83.76
34696;BME280;20918;51.138;17.370;2023-03-03T15:13:37;100598.48;;;0.68;83.69
34696;BME280;20918;51.138;17.370;2023-03-03T15:16:37;100600.08;;;0.64;83.80
34696;BME280;20918;51.138;17.370;2023-03-03T15:19:49;100591.31;;;0.62;83.97
34696;BME280;20918;51.138;17.370;2023-03-03T15:23:04;100590.63;;;0.65;84.07
34696;BME280;20918;51.138;17.370;2023-03-03T15:26:15;100590.54;;;0.64;83.89
34696;BME280;20918;51.138;17.370;2023-03-03T15:35:49;100582.67;;;0.53;83.57
34696;BME280;20918;51.138;17.370;2023-03-03T15:39:02;100582.13;;;0.50;83.67
34696;BME280;20918;51.138;17.370;2023-03-03T15:45:31;100580.19;;;0.41;83.43
34696;BME280;20918;51.138;17.370;2023-03-03T16:00:48;100581.96;;;0.35;83.87
34696;BME280;20918;51.138;17.370;2023-03-03T16:26:22;100577.63;;;0.17;83.99
34696;BME280;20918;51.138;17.370;2023-03-03T16:35:52;100579.23;;;0.13;84.00
34696;BME280;20918;51.138;17.370;2023-03-03T16:48:22;100566.23;;;0.07;84.08
34696;BME280;20918;51.138;17.370;2023-03-03T16:54:46;100580.58;;;0.02;84.02
34696;BME280;20918;51.138;17.370;2023-03-03T17:01:00;100587.44;;;-0.03;84.12
34696;BME280;20918;51.138;17.370;2023-03-03T17:04:39;100584.45;;;-0.05;83.98
34696;BME280;20918;51.138;17.370;2023-03-03T17:10:41;100575.89;;;-0.04;84.11
34696;BME280;20918;51.138;17.370;2023-03-03T17:14:00;100577.67;;;-0.02;84.20
34696;BME280;20918;51.138;17.370;2023-03-03T17:41:43;100600.76;;;-0.01;84.53
34696;BME280;20918;51.138;17.370;2023-03-03T17:44:52;100603.95;;;-0.02;84.65
34696;BME280;20918;51.138;17.370;2023-03-03T17:48:02;100598.49;;;-0.04;84.56
34696;BME280;20918;51.138;17.370;2023-03-03T18:00:55;100594.14;;;-0.10;84.86
34696;BME280;20918;51.138;17.370;2023-03-03T18:07:10;100590.52;;;-0.14;84.94
34696;BME280;20918;51.138;17.370;2023-03-03T18:19:57;100587.42;;;-0.20;84.93
34696;BME280;20918;51.138;17.370;2023-03-03T18:26:36;100589.18;;;-0.24;84.98
34696;BME280;20918;51.138;17.370;2023-03-03T18:29:39;100587.11;;;-0.25;85.13
34696;BME280;20918;51.138;17.370;2023-03-03T18:36:09;100584.04;;;-0.31;85.39
34696;BME280;20918;51.138;17.370;2023-03-03T18:39:12;100580.45;;;-0.36;85.42
34696;BME280;20918;51.138;17.370;2023-03-03T18:54:57;100596.11;;;-0.46;85.45
34696;BME280;20918;51.138;17.370;2023-03-03T19:04:30;100595.54;;;-0.54;85.78
34696;BME280;20918;51.138;17.370;2023-03-03T19:10:43;100595.73;;;-0.58;85.97
34696;BME280;20918;51.138;17.370;2023-03-03T19:13:47;100594.38;;;-0.58;86.22
34696;BME280;20918;51.138;17.370;2023-03-03T19:16:48;100591.57;;;-0.61;86.06
34696;BME280;20918;51.138;17.370;2023-03-03T19:20:07;100595.58;;;-0.61;86.28
34696;BME280;20918;51.138;17.370;2023-03-03T19:32:47;100607.04;;;-0.64;86.16
34696;BME280;20918;51.138;17.370;2023-03-03T19:42:10;100605.85;;;-0.65;86.26
34696;BME280;20918;51.138;17.370;2023-03-03T19:45:26;100610.88;;;-0.64;86.54
34696;BME280;20918;51.138;17.370;2023-03-03T19:48:43;100603.36;;;-0.63;86.66
34696;BME280;20918;51.138;17.370;2023-03-03T19:55:17;100602.81;;;-0.63;86.68
34696;BME280;20918;51.138;17.370;2023-03-03T19:58:27;100591.55;;;-0.64;86.59
34696;BME280;20918;51.138;17.370;2023-03-03T20:01:53;100581.27;;;-0.63;86.88
34696;BME280;20918;51.138;17.370;2023-03-03T20:17:42;100587.09;;;-0.65;86.78
34696;BME280;20918;51.138;17.370;2023-03-03T20:21:00;100589.06;;;-0.63;86.58
34696;BME280;20918;51.138;17.370;2023-03-03T20:27:28;100583.58;;;-0.61;87.05
34696;BME280;20918;51.138;17.370;2023-03-03T20:30:39;100579.15;;;-0.59;87.00
34696;BME280;20918;51.138;17.370;2023-03-03T20:33:49;100575.80;;;-0.58;86.93
34696;BME280;20918;51.138;17.370;2023-03-03T20:40:06;100569.96;;;-0.60;87.27
34696;BME280;20918;51.138;17.370;2023-03-03T20:52:33;100571.70;;;-0.60;87.51
34696;BME280;20918;51.138;17.370;2023-03-03T20:56:02;100568.71;;;-0.62;87.80
34696;BME280;20918;51.138;17.370;2023-03-03T21:05:16;100559.36;;;-0.66;87.64
34696;BME280;20918;51.138;17.370;2023-03-03T21:08:20;100556.55;;;-0.69;87.64
34696;BME280;20918;51.138;17.370;2023-03-03T21:11:39;100554.89;;;-0.73;87.97
34696;BME280;20918;51.138;17.370;2023-03-03T21:14:40;100552.21;;;-0.78;88.00
34696;BME280;20918;51.138;17.370;2023-03-03T21:17:41;100544.86;;;-0.80;87.99
34696;BME280;20918;51.138;17.370;2023-03-03T21:20:41;100542.23;;;-0.83;88.32
34696;BME280;20918;51.138;17.370;2023-03-03T21:23:42;100541.16;;;-0.86;88.28
34696;BME280;20918;51.138;17.370;2023-03-03T21:30:00;100528.23;;;-0.88;88.60
34696;BME280;20918;51.138;17.370;2023-03-03T21:33:00;100533.17;;;-0.93;88.52
34696;BME280;20918;51.138;17.370;2023-03-03T21:36:02;100530.71;;;-0.95;88.57
34696;BME280;20918;51.138;17.370;2023-03-03T21:39:19;100533.38;;;-1.00;88.55
34696;BME280;20918;51.138;17.370;2023-03-03T21:42:28;100524.89;;;-1.03;88.56
34696;BME280;20918;51.138;17.370;2023-03-03T21:45:38;100520.02;;;-1.06;88.78
34696;BME280;20918;51.138;17.370;2023-03-03T21:48:41;100513.35;;;-1.08;88.89
34696;BME280;20918;51.138;17.370;2023-03-03T21:51:41;100513.10;;;-1.10;89.04
34696;BME280;20918;51.138;17.370;2023-03-03T21:54:42;100507.70;;;-1.09;88.99
34696;BME280;20918;51.138;17.370;2023-03-03T21:57:43;100503.02;;;-1.09;88.88
34696;BME280;20918;51.138;17.370;2023-03-03T22:00:44;100501.80;;;-1.10;88.87
34696;BME280;20918;51.138;17.370;2023-03-03T22:03:44;100494.52;;;-1.10;89.10
34696;BME280;20918;51.138;17.370;2023-03-03T22:06:47;100495.50;;;-1.08;89.27
34696;BME280;20918;51.138;17.370;2023-03-03T22:09:48;100493.05;;;-1.08;89.19
34696;BME280;20918;51.138;17.370;2023-03-03T22:12:48;100488.82;;;-1.07;89.24
34696;BME280;20918;51.138;17.370;2023-03-03T22:15:49;100484.93;;;-1.06;89.51
34696;BME280;20918;51.138;17.370;2023-03-03T22:18:49;100480.42;;;-1.06;89.40
34696;BME280;20918;51.138;17.370;2023-03-03T22:21:50;100482.54;;;-1.06;89.65